sensor_id;sensor_type;location;lat;lon;timestamp;pressure;altitude;pressure_sealevel;temperature
78905;BMP280;68291;49.602;8.722;2023-03-16T00:01:31;100090.66;;;3.95
78905;BMP280;68291;49.602;8.722;2023-03-16T00:04:05;100087.19;;;3.99
78905;BMP280;68291;49.602;8.722;2023-03-16T00:06:46;100089.72;;;3.99
78905;BMP280;68291;49.602;8.722;2023-03-16T00:09:35;100092.31;;;3.96
78905;BMP280;68291;49.602;8.722;2023-03-16T00:12:33;100102.59;;;3.89
78905;BMP280;68291;49.602;8.722;2023-03-16T00:15:13;100099.19;;;3.88
78905;BMP280;68291;49.602;8.722;2023-03-16T00:18:03;100106.03;;;3.85
78905;BMP280;68291;49.602;8.722;2023-03-16T00:20:35;100100.91;;;3.86
78905;BMP280;68291;49.602;8.722;2023-03-16T00:23:22;100100.00;;;3.90
78905;BMP280;68291;49.602;8.722;2023-03-16T00:26:18;100084.69;;;3.95
78905;BMP280;68291;49.602;8.722;2023-03-16T00:28:51;100101.63;;;3.97
78905;BMP280;68291;49.602;8.722;2023-03-16T00:31:44;100096.53;;;3.97
78905;BMP280;68291;49.602;8.722;2023-03-16T00:34:22;100096.59;;;3.94
78905;BMP280;68291;49.602;8.722;2023-03-16T00:37:04;100091.59;;;3.85
78905;BMP280;68291;49.602;8.722;2023-03-16T00:39:46;100090.78;;;3.80
78905;BMP280;68291;49.602;8.722;2023-03-16T00:42:28;100082.28;;;3.80
78905;BMP280;68291;49.602;8.722;2023-03-16T00:45:12;100077.22;;;3.77
78905;BMP280;68291;49.602;8.722;2023-03-16T00:48:00;100080.72;;;3.69
78905;BMP280;68291;49.602;8.722;2023-03-16T00:50:47;100078.25;;;3.58
78905;BMP280;68291;49.602;8.722;2023-03-16T00:53:46;100075.78;;;3.51
78905;BMP280;68291;49.602;8.722;2023-03-16T00:56:17;100080.09;;;3.46
78905;BMP280;68291;49.602;8.722;2023-03-16T00:59:23;100072.50;;;3.39
78905;BMP280;68291;49.602;8.722;2023-03-16T01:01:57;100070.88;;;3.30
78905;BMP280;68291;49.602;8.722;2023-03-16T01:04:46;100070.94;;;3.21
78905;BMP280;68291;49.602;8.722;2023-03-16T01:07:29;100067.63;;;3.10
78905;BMP280;68291;49.602;8.722;2023-03-16T01:10:02;100078.72;;;3.05
78905;BMP280;68291;49.602;8.722;2023-03-16T01:12:48;100072.78;;;3.02
78905;BMP280;68291;49.602;8.722;2023-03-16T01:15:25;100071.91;;;3.03
78905;BMP280;68291;49.602;8.722;2023-03-16T01:18:19;100070.22;;;3.07
78905;BMP280;68291;49.602;8.722;2023-03-16T01:21:19;100061.72;;;3.10
78905;BMP280;68291;49.602;8.722;2023-03-16T01:24:10;100054.06;;;3.10
78905;BMP280;68291;49.602;8.722;2023-03-16T01:26:43;100059.16;;;3.10
78905;BMP280;68291;49.602;8.722;2023-03-16T01:29:40;100064.25;;;3.11
78905;BMP280;68291;49.602;8.722;2023-03-16T01:32:32;100065.88;;;3.15
78905;BMP280;68291;49.602;8.722;2023-03-16T01:35:14;100062.53;;;3.12
78905;BMP280;68291;49.602;8.722;2023-03-16T01:38:10;100069.38;;;3.03
78905;BMP280;68291;49.602;8.722;2023-03-16T01:40:46;100066.91;;;2.97
78905;BMP280;68291;49.602;8.722;2023-03-16T01:43:41;100057.59;;;2.93
78905;BMP280;68291;49.602;8.722;2023-03-16T01:46:31;100058.47;;;2.90
78905;BMP280;68291;49.602;8.722;2023-03-16T01:49:37;100061.91;;;2.80
78905;BMP280;68291;49.602;8.722;2023-03-16T01:52:29;100051.78;;;2.76
78905;BMP280;68291;49.602;8.722;2023-03-16T01:55:18;100047.56;;;2.75
78905;BMP280;68291;49.602;8.722;2023-03-16T01:57:54;100046.72;;;2.73
78905;BMP280;68291;49.602;8.722;2023-03-16T02:00:50;100042.50;;;2.69
78905;BMP280;68291;49.602;8.722;2023-03-16T02:03:39;100037.41;;;2.66
78905;BMP280;68291;49.602;8.722;2023-03-16T02:06:24;100030.63;;;2.68
78905;BMP280;68291;49.602;8.722;2023-03-16T02:09:13;100028.94;;;2.66
78905;BMP280;68291;49.602;8.722;2023-03-16T02:12:03;100027.31;;;2.57
78905;BMP280;68291;49.602;8.722;2023-03-16T02:14:47;100026.53;;;2.49
78905;BMP280;68291;49.602;8.722;2023-03-16T02:17:34;100029.97;;;2.41
78905;BMP280;68291;49.602;8.722;2023-03-16T02:20:24;100023.16;;;2.40
78905;BMP280;68291;49.602;8.722;2023-03-16T02:23:15;100023.22;;;2.34
78905;BMP280;68291;49.602;8.722;2023-03-16T02:26:22;100011.34;;;2.33
78905;BMP280;68291;49.602;8.722;2023-03-16T02:29:15;100005.41;;;2.38
78905;BMP280;68291;49.602;8.722;2023-03-16T02:32:33;100017.22;;;2.45
78905;BMP280;68291;49.602;8.722;2023-03-16T02:35:21;100020.59;;;2.47
78905;BMP280;68291;49.602;8.722;2023-03-16T02:37:59;100011.25;;;2.51
78905;BMP280;68291;49.602;8.722;2023-03-16T02:40:38;100011.22;;;2.57
78905;BMP280;68291;49.602;8.722;2023-03-16T02:43:22;100013.81;;;2.49
78905;BMP280;68291;49.602;8.722;2023-03-16T02:46:24;100012.13;;;2.51
78905;BMP280;68291;49.602;8.722;2023-03-16T02:49:12;99988.44;;;2.45
78905;BMP280;68291;49.602;8.722;2023-03-16T02:52:02;99969.84;;;2.38
78905;BMP280;68291;49.602;8.722;2023-03-16T02:54:55;99991.84;;;2.41
78905;BMP280;68291;49.602;8.722;2023-03-16T02:57:26;99999.47;;;2.41
78905;BMP280;68291;49.602;8.722;2023-03-16T03:00:14;99991.88;;;2.31
78905;BMP280;68291;49.602;8.722;2023-03-16T03:03:07;100000.38;;;2.28
78905;BMP280;68291;49.602;8.722;2023-03-16T03:06:22;99989.41;;;2.20
78905;BMP280;68291;49.602;8.722;2023-03-16T03:09:19;99958.97;;;2.10
78905;BMP280;68291;49.602;8.722;2023-03-16T03:12:02;99975.00;;;2.21
78905;BMP280;68291;49.602;8.722;2023-03-16T03:14:54;99953.06;;;2.11
78905;BMP280;68291;49.602;8.722;2023-03-16T03:17:28;99953.03;;;2.14
78905;BMP280;68291;49.602;8.722;2023-03-16T03:20:00;99956.41;;;2.17
78905;BMP280;68291;49.602;8.722;2023-03-16T03:23:01;99949.66;;;2.12
78905;BMP280;68291;49.602;8.722;2023-03-16T03:25:49;99967.47;;;2.09
78905;BMP280;68291;49.602;8.722;2023-03-16T03:28:34;99951.34;;;2.10
78905;BMP280;68291;49.602;8.722;2023-03-16T03:31:13;99955.56;;;2.12
78905;BMP280;68291;49.602;8.722;2023-03-16T03:33:52;99952.22;;;2.07
78905;BMP280;68291;49.602;8.722;2023-03-16T03:36:25;99961.50;;;2.13
78905;BMP280;68291;49.602;8.722;2023-03-16T03:39:07;99951.34;;;2.10
78905;BMP280;68291;49.602;8.722;2023-03-16T03:41:51;99957.28;;;2.13
78905;BMP280;68291;49.602;8.722;2023-03-16T03:44:25;99947.13;;;2.09
78905;BMP280;68291;49.602;8.722;2023-03-16T03:46:56;99944.56;;;2.15
78905;BMP280;68291;49.602;8.722;2023-03-16T03:49:28;99956.34;;;2.25
78905;BMP280;68291;49.602;8.722;2023-03-16T03:52:13;99950.41;;;2.29
78905;BMP280;68291;49.602;8.722;2023-03-16T03:55:04;99953.78;;;2.32
78905;BMP280;68291;49.602;8.722;2023-03-16T03:57:36;99933.47;;;2.32
78905;BMP280;68291;49.602;8.722;2023-03-16T04:00:17;99938.50;;;2.37
78905;BMP280;68291;49.602;8.722;2023-03-16T04:03:00;99943.59;;;2.34
78905;BMP280;68291;49.602;8.722;2023-03-16T04:05:53;99948.66;;;2.35
78905;BMP280;68291;49.602;8.722;2023-03-16T04:08:48;99939.38;;;2.30
78905;BMP280;68291;49.602;8.722;2023-03-16T04:11:39;99942.75;;;2.32
78905;BMP280;68291;49.602;8.722;2023-03-16T04:14:37;99936.88;;;2.27
78905;BMP280;68291;49.602;8.722;2023-03-16T04:17:10;99942.78;;;2.30
78905;BMP280;68291;49.602;8.722;2023-03-16T04:20:07;99945.25;;;2.39
78905;BMP280;68291;49.602;8.722;2023-03-16T04:22:50;99947.84;;;2.32
78905;BMP280;68291;49.602;8.722;2023-03-16T04:25:27;99941.09;;;2.31
78905;BMP280;68291;49.602;8.722;2023-03-16T04:28:58;99937.69;;;2.29
78905;BMP280;68291;49.602;8.722;2023-03-16T04:31:47;99944.50;;;2.28
78905;BMP280;68291;49.602;8.722;2023-03-16T04:34:41;99946.16;;;2.31
78905;BMP280;68291;49.602;8.722;2023-03-16T04:37:31;99948.63;;;2.38
78905;BMP280;68291;49.602;8.722;2023-03-16T04:40:19;99949.44;;;2.44
78905;BMP280;68291;49.602;8.722;2023-03-16T04:42:56;99946.88;;;2.50
78905;BMP280;68291;49.602;8.722;2023-03-16T04:45:43;99957.84;;;2.58
78905;BMP280;68291;49.602;8.722;2023-03-16T04:48:18;99950.22;;;2.55
78905;BMP280;68291;49.602;8.722;2023-03-16T04:50:53;99936.69;;;2.52
78905;BMP280;68291;49.602;8.722;2023-03-16T04:53:50;99930.75;;;2.54
78905;BMP280;68291;49.602;8.722;2023-03-16T04:56:50;99925.59;;;2.63
78905;BMP280;68291;49.602;8.722;2023-03-16T04:59:53;99928.09;;;2.66
78905;BMP280;68291;49.602;8.722;2023-03-16T05:02:38;99924.75;;;2.64
78905;BMP280;68291;49.602;8.722;2023-03-16T05:05:22;99921.34;;;2.64
78905;BMP280;68291;49.602;8.722;2023-03-16T05:08:03;99916.25;;;2.64
78905;BMP280;68291;49.602;8.722;2023-03-16T05:10:37;99925.53;;;2.71
78905;BMP280;68291;49.602;8.722;2023-03-16T05:13:35;99931.44;;;2.74
78905;BMP280;68291;49.602;8.722;2023-03-16T05:16:15;99916.09;;;2.83
78905;BMP280;68291;49.602;8.722;2023-03-16T05:19:17;99917.81;;;2.84
78905;BMP280;68291;49.602;8.722;2023-03-16T05:21:54;99901.69;;;2.83
78905;BMP280;68291;49.602;8.722;2023-03-16T05:24:55;99916.84;;;2.94
78905;BMP280;68291;49.602;8.722;2023-03-16T05:27:33;99928.72;;;2.95
78905;BMP280;68291;49.602;8.722;2023-03-16T05:30:24;99912.59;;;2.96
78905;BMP280;68291;49.602;8.722;2023-03-16T05:33:00;99924.34;;;3.10
78905;BMP280;68291;49.602;8.722;2023-03-16T05:36:10;99924.38;;;3.06
78905;BMP280;68291;49.602;8.722;2023-03-16T05:38:45;99929.38;;;3.16
78905;BMP280;68291;49.602;8.722;2023-03-16T05:41:39;99916.63;;;3.17
78905;BMP280;68291;49.602;8.722;2023-03-16T05:44:29;99916.63;;;3.17
78905;BMP280;68291;49.602;8.722;2023-03-16T05:47:28;99902.19;;;3.19
78905;BMP280;68291;49.602;8.722;2023-03-16T05:50:04;99902.13;;;3.27
78905;BMP280;68291;49.602;8.722;2023-03-16T05:52:46;99894.53;;;3.22
78905;BMP280;68291;49.602;8.722;2023-03-16T05:55:39;99885.25;;;3.17
78905;BMP280;68291;49.602;8.722;2023-03-16T05:58:37;99891.13;;;3.23
78905;BMP280;68291;49.602;8.722;2023-03-16T06:01:19;99897.81;;;3.33
78905;BMP280;68291;49.602;8.722;2023-03-16T06:03:52;99884.16;;;3.37
78905;BMP280;68291;49.602;8.722;2023-03-16T06:06:42;99885.75;;;3.47
78905;BMP280;68291;49.602;8.722;2023-03-16T06:09:53;99889.94;;;3.52
78905;BMP280;68291;49.602;8.722;2023-03-16T06:12:47;99889.78;;;3.63
78905;BMP280;68291;49.602;8.722;2023-03-16T06:15:36;99882.91;;;3.72
78905;BMP280;68291;49.602;8.722;2023-03-16T06:18:10;99877.75;;;3.75
78905;BMP280;68291;49.602;8.722;2023-03-16T06:20:55;99871.75;;;3.80
78905;BMP280;68291;49.602;8.722;2023-03-16T06:23:52;99881.00;;;3.89
78905;BMP280;68291;49.602;8.722;2023-03-16T06:26:56;99869.91;;;3.91
78905;BMP280;68291;49.602;8.722;2023-03-16T06:29:35;99880.00;;;3.97
78905;BMP280;68291;49.602;8.722;2023-03-16T06:32:13;99884.16;;;4.04
78905;BMP280;68291;49.602;8.722;2023-03-16T06:35:11;99886.72;;;4.04
78905;BMP280;68291;49.602;8.722;2023-03-16T06:38:11;99888.22;;;4.17
78905;BMP280;68291;49.602;8.722;2023-03-16T06:41:09;99892.38;;;4.22
78905;BMP280;68291;49.602;8.722;2023-03-16T06:44:19;99892.38;;;4.22
78905;BMP280;68291;49.602;8.722;2023-03-16T06:47:27;99894.91;;;4.24
78905;BMP280;68291;49.602;8.722;2023-03-16T06:49:58;99892.22;;;4.34
78905;BMP280;68291;49.602;8.722;2023-03-16T06:52:30;99898.00;;;4.43
78905;BMP280;68291;49.602;8.722;2023-03-16T06:55:13;99904.69;;;4.50
78905;BMP280;68291;49.602;8.722;2023-03-16T06:58:02;99896.03;;;4.60
78905;BMP280;68291;49.602;8.722;2023-03-16T07:01:05;99895.88;;;4.71
78905;BMP280;68291;49.602;8.722;2023-03-16T07:03:53;99891.47;;;4.80
78905;BMP280;68291;49.602;8.722;2023-03-16T07:06:31;99896.41;;;4.87
78905;BMP280;68291;49.602;8.722;2023-03-16T07:09:14;99900.44;;;5.02
78905;BMP280;68291;49.602;8.722;2023-03-16T07:11:50;99902.66;;;5.19
78905;BMP280;68291;49.602;8.722;2023-03-16T07:14:21;99897.31;;;5.33
78905;BMP280;68291;49.602;8.722;2023-03-16T07:17:25;99902.06;;;5.50
78905;BMP280;68291;49.602;8.722;2023-03-16T07:20:05;99900.91;;;5.65
78905;BMP280;68291;49.602;8.722;2023-03-16T07:22:47;99900.63;;;5.79
78905;BMP280;68291;49.602;8.722;2023-03-16T07:25:32;99902.94;;;5.93
78905;BMP280;68291;49.602;8.722;2023-03-16T07:28:14;99890.78;;;6.02
78905;BMP280;68291;49.602;8.722;2023-03-16T07:30:45;99883.00;;;6.08
78905;BMP280;68291;49.602;8.722;2023-03-16T07:33:44;99898.00;;;6.23
78905;BMP280;68291;49.602;8.722;2023-03-16T07:36:45;99891.03;;;6.29
78905;BMP280;68291;49.602;8.722;2023-03-16T07:39:37;99895.03;;;6.41
78905;BMP280;68291;49.602;8.722;2023-03-16T07:42:18;99891.47;;;6.46
78905;BMP280;68291;49.602;8.722;2023-03-16T07:45:07;99897.22;;;6.55
78905;BMP280;68291;49.602;8.722;2023-03-16T07:47:51;99899.56;;;6.64
78905;BMP280;68291;49.602;8.722;2023-03-16T07:50:47;99891.69;;;6.72
78905;BMP280;68291;49.602;8.722;2023-03-16T07:53:28;99896.59;;;6.81
78905;BMP280;68291;49.602;8.722;2023-03-16T07:56:25;99898.09;;;6.89
78905;BMP280;68291;49.602;8.722;2023-03-16T07:59:36;99892.84;;;6.93
78905;BMP280;68291;49.602;8.722;2023-03-16T08:02:32;99879.88;;;7.01
78905;BMP280;68291;49.602;8.722;2023-03-16T08:05:04;99886.41;;;7.11
78905;BMP280;68291;49.602;8.722;2023-03-16T08:08:05;99878.59;;;7.16
78905;BMP280;68291;49.602;8.722;2023-03-16T08:10:41;99874.97;;;7.23
78905;BMP280;68291;49.602;8.722;2023-03-16T08:13:34;99877.31;;;7.32
78905;BMP280;68291;49.602;8.722;2023-03-16T08:16:26;99877.00;;;7.43
78905;BMP280;68291;49.602;8.722;2023-03-16T08:19:03;99877.63;;;7.52
78905;BMP280;68291;49.602;8.722;2023-03-16T08:22:01;99873.03;;;7.63
78905;BMP280;68291;49.602;8.722;2023-03-16T08:24:53;99866.69;;;7.76
78905;BMP280;68291;49.602;8.722;2023-03-16T08:27:40;99861.19;;;7.87
78905;BMP280;68291;49.602;8.722;2023-03-16T08:30:25;99877.97;;;7.97
78905;BMP280;68291;49.602;8.722;2023-03-16T08:33:30;99860.72;;;8.02
78905;BMP280;68291;49.602;8.722;2023-03-16T08:36:20;99873.97;;;8.18
78905;BMP280;68291;49.602;8.722;2023-03-16T08:38:56;99877.97;;;8.26
78905;BMP280;68291;49.602;8.722;2023-03-16T08:41:56;99871.59;;;8.39
78905;BMP280;68291;49.602;8.722;2023-03-16T08:44:37;99866.97;;;8.50
78905;BMP280;68291;49.602;8.722;2023-03-16T08:47:14;99874.38;;;8.58
78905;BMP280;68291;49.602;8.722;2023-03-16T08:50:11;99867.16;;;8.69
78905;BMP280;68291;49.602;8.722;2023-03-16T08:52:58;99866.03;;;8.78
78905;BMP280;68291;49.602;8.722;2023-03-16T08:56:01;99863.06;;;8.89
78905;BMP280;68291;49.602;8.722;2023-03-16T08:58:46;99848.19;;;8.99
78905;BMP280;68291;49.602;8.722;2023-03-16T09:01:40;99846.13;;;9.08
78905;BMP280;68291;49.602;8.722;2023-03-16T09:04:13;99846.81;;;9.13
78905;BMP280;68291;49.602;8.722;2023-03-16T09:06:59;99849.91;;;9.22
78905;BMP280;68291;49.602;8.722;2023-03-16T09:09:49;99845.34;;;9.30
78905;BMP280;68291;49.602;8.722;2023-03-16T09:12:36;99846.81;;;9.37
78905;BMP280;68291;49.602;8.722;2023-03-16T09:15:12;99840.47;;;9.47
78905;BMP280;68291;49.602;8.722;2023-03-16T09:18:09;99842.63;;;9.57
78905;BMP280;68291;49.602;8.722;2023-03-16T09:20:39;99840.75;;;9.62
78905;BMP280;68291;49.602;8.722;2023-03-16T09:23:36;99836.13;;;9.70
78905;BMP280;68291;49.602;8.722;2023-03-16T09:26:24;99838.41;;;9.79
78905;BMP280;68291;49.602;8.722;2023-03-16T09:29:12;99850.84;;;9.90
78905;BMP280;68291;49.602;8.722;2023-03-16T09:31:56;99853.78;;;10.03
78905;BMP280;68291;49.602;8.722;2023-03-16T09:34:50;99838.69;;;10.16
78905;BMP280;68291;49.602;8.722;2023-03-16T09:37:46;99837.38;;;10.27
78905;BMP280;68291;49.602;8.722;2023-03-16T09:40:42;99840.47;;;10.35
78905;BMP280;68291;49.602;8.722;2023-03-16T09:43:52;99833.25;;;10.44
78905;BMP280;68291;49.602;8.722;2023-03-16T09:46:40;99824.38;;;10.51
78905;BMP280;68291;49.602;8.722;2023-03-16T09:49:58;99830.47;;;10.70
78905;BMP280;68291;49.602;8.722;2023-03-16T09:53:04;99838.50;;;10.82
78905;BMP280;68291;49.602;8.722;2023-03-16T09:55:57;99826.88;;;10.93
78905;BMP280;68291;49.602;8.722;2023-03-16T09:58:53;99813.81;;;10.98
78905;BMP280;68291;49.602;8.722;2023-03-16T10:01:37;99817.28;;;11.17
78905;BMP280;68291;49.602;8.722;2023-03-16T10:04:36;99806.56;;;11.26
78905;BMP280;68291;49.602;8.722;2023-03-16T10:07:49;99810.50;;;11.34
78905;BMP280;68291;49.602;8.722;2023-03-16T10:13:46;99806.28;;;11.51
78905;BMP280;68291;49.602;8.722;2023-03-16T10:16:26;99803.38;;;11.59
78905;BMP280;68291;49.602;8.722;2023-03-16T10:19:12;99802.13;;;11.67
78905;BMP280;68291;49.602;8.722;2023-03-16T10:21:55;99789.72;;;11.75
78905;BMP280;68291;49.602;8.722;2023-03-16T10:25:06;99782.53;;;11.81
78905;BMP280;68291;49.602;8.722;2023-03-16T10:28:04;99792.53;;;11.87
78905;BMP280;68291;49.602;8.722;2023-03-16T10:30:59;99795.56;;;11.97
78905;BMP280;68291;49.602;8.722;2023-03-16T10:33:52;99795.25;;;12.02
78905;BMP280;68291;49.602;8.722;2023-03-16T10:36:32;99793.31;;;12.07
78905;BMP280;68291;49.602;8.722;2023-03-16T10:39:11;99791.19;;;12.15
78905;BMP280;68291;49.602;8.722;2023-03-16T10:41:56;99791.66;;;12.23
78905;BMP280;68291;49.602;8.722;2023-03-16T10:44:58;99790.47;;;12.30
78905;BMP280;68291;49.602;8.722;2023-03-16T10:47:43;99795.19;;;12.39
78905;BMP280;68291;49.602;8.722;2023-03-16T10:50:28;99798.25;;;12.47
78905;BMP280;68291;49.602;8.722;2023-03-16T10:53:01;99786.69;;;12.54
78905;BMP280;68291;49.602;8.722;2023-03-16T10:55:43;99786.34;;;12.61
78905;BMP280;68291;49.602;8.722;2023-03-16T10:58:30;99774.41;;;12.59
78905;BMP280;68291;49.602;8.722;2023-03-16T11:01:22;99779.41;;;12.62
78905;BMP280;68291;49.602;8.722;2023-03-16T11:04:13;99775.47;;;12.71
78905;BMP280;68291;49.602;8.722;2023-03-16T11:07:17;99778.06;;;12.71
78905;BMP280;68291;49.602;8.722;2023-03-16T11:10:25;99764.38;;;12.69
78905;BMP280;68291;49.602;8.722;2023-03-16T11:13:44;99757.63;;;12.84
78905;BMP280;68291;49.602;8.722;2023-03-16T11:16:52;99758.66;;;12.97
78905;BMP280;68291;49.602;8.722;2023-03-16T11:19:52;99758.72;;;13.12
78905;BMP280;68291;49.602;8.722;2023-03-16T11:22:31;99754.59;;;13.25
78905;BMP280;68291;49.602;8.722;2023-03-16T11:25:15;99755.97;;;13.32
78905;BMP280;68291;49.602;8.722;2023-03-16T11:28:16;99747.28;;;13.33
78905;BMP280;68291;49.602;8.722;2023-03-16T11:31:19;99746.03;;;13.39
78905;BMP280;68291;49.602;8.722;2023-03-16T11:33:59;99749.63;;;13.52
78905;BMP280;68291;49.602;8.722;2023-03-16T11:36:42;99732.78;;;13.61
78905;BMP280;68291;49.602;8.722;2023-03-16T11:39:29;99729.44;;;13.74
78905;BMP280;68291;49.602;8.722;2023-03-16T11:42:36;99732.78;;;13.91
78905;BMP280;68291;49.602;8.722;2023-03-16T11:45:24;99734.28;;;14.10
78905;BMP280;68291;49.602;8.722;2023-03-16T11:48:31;99734.84;;;14.31
78905;BMP280;68291;49.602;8.722;2023-03-16T11:51:36;99737.22;;;14.49
78905;BMP280;68291;49.602;8.722;2023-03-16T11:54:43;99730.13;;;14.66
78905;BMP280;68291;49.602;8.722;2023-03-16T11:57:50;99715.66;;;14.77
78905;BMP280;68291;49.602;8.722;2023-03-16T12:00:46;99714.53;;;14.95
78905;BMP280;68291;49.602;8.722;2023-03-16T12:07:16;99701.03;;;15.18
78905;BMP280;68291;49.602;8.722;2023-03-16T12:10:09;99701.06;;;15.32
78905;BMP280;68291;49.602;8.722;2023-03-16T12:13:27;99698.63;;;15.42
78905;BMP280;68291;49.602;8.722;2023-03-16T12:16:16;99690.91;;;15.55
78905;BMP280;68291;49.602;8.722;2023-03-16T12:19:04;99686.88;;;15.63
78905;BMP280;68291;49.602;8.722;2023-03-16T12:22:09;99680.78;;;15.64
78905;BMP280;68291;49.602;8.722;2023-03-16T12:25:02;99683.00;;;15.70
78905;BMP280;68291;49.602;8.722;2023-03-16T12:27:59;99669.81;;;15.73
78905;BMP280;68291;49.602;8.722;2023-03-16T12:30:44;99665.16;;;15.78
78905;BMP280;68291;49.602;8.722;2023-03-16T12:33:35;99668.41;;;15.81
78905;BMP280;68291;49.602;8.722;2023-03-16T12:36:56;99663.56;;;15.89
78905;BMP280;68291;49.602;8.722;2023-03-16T12:40:00;99663.66;;;15.88
78905;BMP280;68291;49.602;8.722;2023-03-16T12:43:19;99662.31;;;15.95
78905;BMP280;68291;49.602;8.722;2023-03-16T12:46:08;99658.00;;;16.08
78905;BMP280;68291;49.602;8.722;2023-03-16T12:49:00;99665.78;;;16.21
78905;BMP280;68291;49.602;8.722;2023-03-16T12:51:43;99661.00;;;16.28
78905;BMP280;68291;49.602;8.722;2023-03-16T12:55:06;99655.19;;;16.37
78905;BMP280;68291;49.602;8.722;2023-03-16T12:57:49;99655.72;;;16.42
78905;BMP280;68291;49.602;8.722;2023-03-16T13:00:35;99654.19;;;16.51
78905;BMP280;68291;49.602;8.722;2023-03-16T13:03:24;99646.06;;;16.56
78905;BMP280;68291;49.602;8.722;2023-03-16T13:06:22;99630.69;;;16.65
78905;BMP280;68291;49.602;8.722;2023-03-16T13:09:07;99635.34;;;16.73
78905;BMP280;68291;49.602;8.722;2023-03-16T13:11:59;99631.72;;;16.75
78905;BMP280;68291;49.602;8.722;2023-03-16T13:14:39;99618.09;;;16.72
78905;BMP280;68291;49.602;8.722;2023-03-16T13:17:28;99606.63;;;16.62
78905;BMP280;68291;49.602;8.722;2023-03-16T13:43:31;99614.41;;;15.34
78905;BMP280;68291;49.602;8.722;2023-03-16T13:46:29;99601.97;;;16.42
78905;BMP280;68291;49.602;8.722;2023-03-16T13:49:11;99595.91;;;17.39
78905;BMP280;68291;49.602;8.722;2023-03-16T13:52:20;99565.91;;;18.37
78905;BMP280;68291;49.602;8.722;2023-03-16T13:54:59;99578.53;;;18.97
78905;BMP280;68291;49.602;8.722;2023-03-16T13:57:53;99562.94;;;19.28
78905;BMP280;68291;49.602;8.722;2023-03-16T14:00:56;99557.34;;;19.74
78905;BMP280;68291;49.602;8.722;2023-03-16T14:03:40;99561.56;;;20.17
78905;BMP280;68291;49.602;8.722;2023-03-16T14:06:29;99546.81;;;20.36
78905;BMP280;68291;49.602;8.722;2023-03-16T14:09:16;99543.56;;;20.44
78905;BMP280;68291;49.602;8.722;2023-03-16T14:12:16;99543.34;;;20.56
78905;BMP280;68291;49.602;8.722;2023-03-16T14:15:14;99555.72;;;20.54
78905;BMP280;68291;49.602;8.722;2023-03-16T14:18:21;99542.16;;;20.40
78905;BMP280;68291;49.602;8.722;2023-03-16T14:21:29;99533.50;;;20.19
78905;BMP280;68291;49.602;8.722;2023-03-16T14:24:30;99547.09;;;19.93
78905;BMP280;68291;49.602;8.722;2023-03-16T14:27:22;99541.66;;;19.74
78905;BMP280;68291;49.602;8.722;2023-03-16T14:30:19;99544.13;;;19.55
78905;BMP280;68291;49.602;8.722;2023-03-16T14:32:57;99538.34;;;19.41
78905;BMP280;68291;49.602;8.722;2023-03-16T14:36:13;99538.72;;;19.26
78905;BMP280;68291;49.602;8.722;2023-03-16T14:38:45;99535.94;;;19.18
78905;BMP280;68291;49.602;8.722;2023-03-16T14:41:41;99544.22;;;19.23
78905;BMP280;68291;49.602;8.722;2023-03-16T14:44:22;99544.06;;;19.35
78905;BMP280;68291;49.602;8.722;2023-03-16T14:47:06;99533.69;;;19.45
78905;BMP280;68291;49.602;8.722;2023-03-16T14:49:48;99534.63;;;19.55
78905;BMP280;68291;49.602;8.722;2023-03-16T14:52:33;99527.09;;;19.72
78905;BMP280;68291;49.602;8.722;2023-03-16T14:55:14;99526.41;;;19.90
78905;BMP280;68291;49.602;8.722;2023-03-16T14:58:02;99513.03;;;20.04
78905;BMP280;68291;49.602;8.722;2023-03-16T15:00:48;99512.84;;;19.96
78905;BMP280;68291;49.602;8.722;2023-03-16T15:03:33;99518.72;;;19.78
78905;BMP280;68291;49.602;8.722;2023-03-16T15:06:07;99509.41;;;19.64
78905;BMP280;68291;49.602;8.722;2023-03-16T15:09:32;99509.22;;;19.56
78905;BMP280;68291;49.602;8.722;2023-03-16T15:12:15;99512.88;;;19.54
78905;BMP280;68291;49.602;8.722;2023-03-16T15:15:13;99511.34;;;19.52
78905;BMP280;68291;49.602;8.722;2023-03-16T15:17:48;99518.91;;;19.65
78905;BMP280;68291;49.602;8.722;2023-03-16T15:20:35;99513.28;;;19.81
78905;BMP280;68291;49.602;8.722;2023-03-16T15:23:20;99505.28;;;19.93
78905;BMP280;68291;49.602;8.722;2023-03-16T15:26:15;99510.50;;;19.93
78905;BMP280;68291;49.602;8.722;2023-03-16T15:29:16;99500.53;;;19.87
78905;BMP280;68291;49.602;8.722;2023-03-16T15:31:48;99505.78;;;19.87
78905;BMP280;68291;49.602;8.722;2023-03-16T15:34:39;99490.13;;;19.76
78905;BMP280;68291;49.602;8.722;2023-03-16T15:37:19;99505.59;;;19.68
78905;BMP280;68291;49.602;8.722;2023-03-16T15:40:19;99491.06;;;19.75
78905;BMP280;68291;49.602;8.722;2023-03-16T15:43:19;99481.28;;;19.88
78905;BMP280;68291;49.602;8.722;2023-03-16T15:46:30;99490.91;;;19.88
78905;BMP280;68291;49.602;8.722;2023-03-16T15:49:12;99490.41;;;19.93
78905;BMP280;68291;49.602;8.722;2023-03-16T15:51:55;99485.53;;;20.09
78905;BMP280;68291;49.602;8.722;2023-03-16T15:54:27;99482.03;;;20.20
78905;BMP280;68291;49.602;8.722;2023-03-16T15:57:13;99483.44;;;20.24
78905;BMP280;68291;49.602;8.722;2023-03-16T15:59:53;99476.53;;;20.23
78905;BMP280;68291;49.602;8.722;2023-03-16T16:02:34;99468.59;;;20.04
78905;BMP280;68291;49.602;8.722;2023-03-16T16:05:31;99475.13;;;19.89
78905;BMP280;68291;49.602;8.722;2023-03-16T16:08:05;99461.28;;;19.67
78905;BMP280;68291;49.602;8.722;2023-03-16T16:10:46;99464.22;;;19.53
78905;BMP280;68291;49.602;8.722;2023-03-16T16:13:38;99458.94;;;19.44
78905;BMP280;68291;49.602;8.722;2023-03-16T16:16:27;99459.09;;;19.31
78905;BMP280;68291;49.602;8.722;2023-03-16T16:19:14;99455.59;;;19.11
78905;BMP280;68291;49.602;8.722;2023-03-16T16:22:10;99451.75;;;18.94
78905;BMP280;68291;49.602;8.722;2023-03-16T16:24:48;99455.16;;;18.84
78905;BMP280;68291;49.602;8.722;2023-03-16T16:27:41;99464.56;;;18.76
78905;BMP280;68291;49.602;8.722;2023-03-16T16:30:26;99448.94;;;18.54
78905;BMP280;68291;49.602;8.722;2023-03-16T16:33:31;99457.69;;;18.31
78905;BMP280;68291;49.602;8.722;2023-03-16T16:36:24;99465.00;;;18.05
78905;BMP280;68291;49.602;8.722;2023-03-16T16:39:19;99472.78;;;17.83
78905;BMP280;68291;49.602;8.722;2023-03-16T16:42:16;99477.78;;;17.63
78905;BMP280;68291;49.602;8.722;2023-03-16T16:45:03;99471.69;;;17.41
78905;BMP280;68291;49.602;8.722;2023-03-16T16:47:58;99475.97;;;17.18
78905;BMP280;68291;49.602;8.722;2023-03-16T16:50:40;99473.09;;;16.98
78905;BMP280;68291;49.602;8.722;2023-03-16T16:53:36;99464.97;;;16.79